Terminal Aerodrome Forecast
Issued by NWS

Home | Current Version | Previous Version | Text Only | Print | Product List | Glossary On
Versions: 1 2 3 4 5 6 7 8 9 10 11 12 13 14 15 16 17 18 19 20 21 22 23 24 25 26
000
FTUS45 KPSR 160700 AAA
TAFSDL
TAF AMD
KSDL 160725Z 1607/1706 12008KT P6SM FEW060 SCT100 BKN200
     FM161200 12005KT P6SM BKN060 BKN150
     FM162300 16007KT P6SM VCSH BKN070 BKN120=

USA.gov is the U.S. government's official web portal to all federal, state and local government web resources and services.